createdAt,value
2022-11-10T00:08:18.960Z,32.60
2022-11-10T00:18:46.470Z,33.10
2022-11-10T00:29:13.788Z,31.10
2022-11-10T00:39:41.032Z,27.30
2022-11-10T00:50:09.900Z,24.80
2022-11-10T01:00:37.455Z,27.10
2022-11-10T01:11:09.119Z,34.00
2022-11-10T01:21:36.347Z,31.30
2022-11-10T01:32:03.622Z,32.60
2022-11-10T01:42:45.372Z,29.10
2022-11-10T01:53:18.174Z,30.60
2022-11-10T02:03:50.363Z,32.10
2022-11-10T02:14:18.494Z,29.80
2022-11-10T02:24:45.858Z,31.10
2022-11-10T02:35:13.102Z,28.60
2022-11-10T02:45:42.307Z,31.30
2022-11-10T02:56:10.647Z,33.10
2022-11-10T03:06:37.983Z,27.90
2022-11-10T03:17:05.336Z,35.30
2022-11-10T03:27:32.674Z,39.50
2022-11-10T03:38:00.145Z,33.10
2022-11-10T03:48:27.392Z,34.90
2022-11-10T03:58:54.597Z,35.30
2022-11-10T04:09:21.881Z,40.60
2022-11-10T04:19:49.200Z,42.90
2022-11-10T04:30:16.882Z,40.90
2022-11-10T04:40:44.209Z,35.10
2022-11-10T04:51:12.698Z,37.90
2022-11-10T05:01:40.090Z,40.30
2022-11-10T05:12:07.630Z,32.00
2022-11-10T05:22:35.359Z,44.40
2022-11-10T05:33:03.049Z,41.40
2022-11-10T05:43:30.425Z,36.90
2022-11-10T05:53:57.931Z,37.50
2022-11-10T06:04:25.552Z,38.50
2022-11-10T06:14:53.007Z,35.20
2022-11-10T06:25:20.449Z,38.10
2022-11-10T06:35:47.800Z,37.20
2022-11-10T06:46:15.040Z,46.40
2022-11-10T06:56:42.325Z,36.00
2022-11-10T07:07:10.071Z,33.40
2022-11-10T07:17:41.977Z,34.60
2022-11-10T07:28:11.519Z,49.10
2022-11-10T07:38:38.857Z,42.00
2022-11-10T07:49:06.252Z,44.10
2022-11-10T07:59:33.601Z,42.40
2022-11-10T08:10:00.917Z,39.80
2022-11-10T08:20:28.295Z,44.80
2022-11-10T08:30:56.056Z,49.10
2022-11-10T08:41:23.548Z,54.70
2022-11-10T08:51:50.907Z,49.00
2022-11-10T09:02:18.248Z,44.20
2022-11-10T09:12:45.592Z,51.70
2022-11-10T09:23:15.415Z,72.60
2022-11-10T09:33:42.796Z,47.50
2022-11-10T09:44:17.779Z,54.10
2022-11-10T09:54:50.311Z,43.50
2022-11-10T10:05:36.077Z,46.00
2022-11-10T10:16:13.080Z,42.60
2022-11-10T10:26:43.451Z,36.80
2022-11-10T10:37:23.925Z,43.60
2022-11-10T10:47:52.706Z,36.30
2022-11-10T10:58:26.616Z,51.10
2022-11-10T11:09:00.478Z,37.30
2022-11-10T11:19:31.810Z,36.20
2022-11-10T11:30:13.284Z,36.50
2022-11-10T11:40:49.642Z,44.60
2022-11-10T11:51:23.679Z,54.20
2022-11-10T12:02:11.555Z,36.00
2022-11-10T12:12:59.260Z,27.50
2022-11-10T12:23:37.114Z,27.80
2022-11-10T12:34:11.649Z,24.40
2022-11-10T12:44:44.586Z,28.30
2022-11-10T12:55:15.888Z,28.30
2022-11-10T13:05:45.569Z,27.90
2022-11-10T13:16:33.232Z,32.80
2022-11-10T13:27:02.090Z,31.00
2022-11-10T13:37:50.875Z,28.20
2022-11-10T13:48:28.078Z,27.50
2022-11-10T13:58:55.956Z,28.40
2022-11-10T14:09:32.239Z,33.80
2022-11-10T14:20:00.193Z,37.20
2022-11-10T14:40:57.772Z,31.40
2022-11-10T14:51:25.671Z,31.80
2022-11-10T15:01:56.080Z,38.20
2022-11-10T15:12:29.515Z,41.50
2022-11-10T15:22:58.365Z,37.50
2022-11-10T15:33:28.429Z,35.40
2022-11-10T15:43:55.813Z,35.70
2022-11-10T15:54:26.785Z,36.30
2022-11-10T16:04:59.728Z,36.40
2022-11-10T16:15:27.643Z,37.60
2022-11-10T16:25:57.441Z,39.40
2022-11-10T16:36:28.472Z,40.30
2022-11-10T16:46:57.490Z,49.70
2022-11-10T16:57:25.120Z,41.90
2022-11-10T17:07:52.590Z,54.80
2022-11-10T17:18:24.771Z,54.70
2022-11-10T17:28:52.170Z,52.00
2022-11-10T17:39:20.416Z,47.60
2022-11-10T17:49:47.947Z,56.10
2022-11-10T18:00:19.088Z,46.60
2022-11-10T18:10:49.931Z,49.00
2022-11-10T18:21:17.389Z,49.50
2022-11-10T18:31:44.958Z,52.60
2022-11-10T18:42:12.721Z,56.20
2022-11-10T18:52:40.055Z,41.50
2022-11-10T19:03:07.485Z,52.10
2022-11-10T19:13:35.028Z,54.50
2022-11-10T19:24:02.341Z,49.50
2022-11-10T19:34:31.637Z,48.30
2022-11-10T19:44:59.123Z,55.70
2022-11-10T19:55:26.456Z,53.50
2022-11-10T20:06:01.826Z,53.80
2022-11-10T20:16:29.265Z,48.60
2022-11-10T20:26:56.585Z,54.30
2022-11-10T20:37:24.009Z,67.60
2022-11-10T20:47:52.983Z,52.30
2022-11-10T20:58:20.316Z,48.70
2022-11-10T21:08:47.586Z,42.90
2022-11-10T21:19:14.895Z,40.60
2022-11-10T21:29:42.481Z,38.70
2022-11-10T21:40:11.703Z,39.80
2022-11-10T21:50:39.090Z,38.90
2022-11-10T22:01:08.904Z,51.30
2022-11-10T22:11:53.732Z,46.10
2022-11-10T22:22:20.988Z,42.60
2022-11-10T22:32:48.333Z,45.20
2022-11-10T22:43:33.383Z,43.30
2022-11-10T22:54:01.154Z,37.30
2022-11-10T23:04:28.564Z,41.20
2022-11-10T23:14:55.894Z,41.10
2022-11-10T23:25:23.257Z,43.50
2022-11-10T23:35:50.517Z,40.60
2022-11-10T23:46:18.074Z,38.50
2022-11-10T23:56:45.354Z,42.00
